Time;durP1;ratioP1;P1;durP2;ratioP2;P2;SDS_P1;SDS_P2;PMS_P1;PMS_P2;Temp;Humidity;BMP_temperature;BMP_pressure;BME280_temperature;BME280_humidity;BME280_pressure;Samples;Min_cycle;Max_cycle;Signal;HPM_P1;HPM_P2
2022/08/30 00:01:22;;;;;;;3.50;2.40;;;18.40;99.90;;;;;;5090455;28;20199;-70
2022/08/30 00:03:48;;;;;;;2.60;2.40;;;18.30;99.90;;;;;;5090638;28;20288;-70
2022/08/30 00:06:19;;;;;;;2.50;2.40;;;18.30;99.90;;;;;;5090747;28;20211;-70
2022/08/30 00:08:47;;;;;;;2.67;2.47;;;18.20;99.90;;;;;;5090878;28;20218;-70
2022/08/30 00:11:22;;;;;;;2.73;2.63;;;18.20;99.90;;;;;;5092623;28;20211;-70
2022/08/30 00:13:51;;;;;;;2.57;2.40;;;18.20;99.90;;;;;;5110415;28;20703;-70
2022/08/30 00:16:20;;;;;;;2.47;2.37;;;18.10;99.90;;;;;;5095323;28;20692;-70
2022/08/30 00:18:47;;;;;;;2.67;2.47;;;18.20;99.90;;;;;;5107820;28;20341;-70
2022/08/30 00:21:20;;;;;;;2.10;2.00;;;18.20;99.90;;;;;;5110534;28;20206;-69
2022/08/30 00:23:47;;;;;;;2.17;2.03;;;18.20;99.90;;;;;;5110452;28;20665;-69
2022/08/30 00:26:13;;;;;;;2.40;2.30;;;18.20;99.90;;;;;;5110809;28;20210;-69
2022/08/30 00:28:42;;;;;;;2.20;2.10;;;18.20;99.90;;;;;;5110689;28;20224;-69
2022/08/30 00:31:17;;;;;;;2.40;2.10;;;18.30;99.90;;;;;;5110229;28;20223;-71
2022/08/30 00:33:44;;;;;;;2.50;2.30;;;18.30;99.90;;;;;;5090968;27;20241;-72
2022/08/30 00:36:20;;;;;;;2.67;2.50;;;18.20;99.90;;;;;;5104640;28;20202;-73
2022/08/30 00:38:47;;;;;;;3.47;2.30;;;18.20;99.90;;;;;;5104160;28;20244;-72
2022/08/30 00:41:17;;;;;;;3.10;2.30;;;18.20;99.90;;;;;;5089622;28;20211;-72
2022/08/30 00:43:45;;;;;;;2.93;2.73;;;18.20;99.90;;;;;;5108325;28;20220;-72
2022/08/30 00:46:17;;;;;;;2.27;2.17;;;18.10;99.90;;;;;;5109657;28;20656;-72
2022/08/30 00:48:49;;;;;;;3.10;2.37;;;18.20;99.90;;;;;;5093601;28;20205;-72
2022/08/30 00:51:17;;;;;;;2.63;2.40;;;18.10;99.90;;;;;;5089512;28;20242;-71
2022/08/30 00:53:47;;;;;;;2.60;2.30;;;18.10;99.90;;;;;;5089429;28;20234;-71
2022/08/30 00:56:18;;;;;;;2.60;2.30;;;18.10;99.90;;;;;;5089334;28;20753;-71
2022/08/30 00:58:57;;;;;;;2.40;2.20;;;18.10;99.90;;;;;;5089653;28;20234;-72
2022/08/30 01:01:25;;;;;;;2.90;2.70;;;18.00;99.90;;;;;;5088824;28;20190;-71
2022/08/30 01:03:52;;;;;;;2.60;2.50;;;18.00;99.90;;;;;;5092111;28;20664;-71
2022/08/30 01:06:19;;;;;;;2.93;2.30;;;18.00;99.90;;;;;;5109720;28;20241;-71
2022/08/30 01:08:47;;;;;;;2.77;2.57;;;18.00;99.90;;;;;;5109231;28;20213;-71
2022/08/30 01:11:23;;;;;;;2.30;2.20;;;18.00;99.90;;;;;;5109165;28;20208;-71
2022/08/30 01:13:53;;;;;;;2.47;2.37;;;18.00;99.90;;;;;;5101564;28;20230;-71
2022/08/30 01:16:21;;;;;;;2.27;2.17;;;18.00;99.90;;;;;;5088982;28;20199;-71
2022/08/30 01:18:49;;;;;;;2.10;2.00;;;18.00;99.90;;;;;;5088895;28;20210;-71
2022/08/30 01:21:20;;;;;;;2.60;2.50;;;18.00;99.90;;;;;;5094934;28;20202;-71
2022/08/30 01:23:52;;;;;;;2.73;2.63;;;18.00;99.90;;;;;;5101566;28;20567;-71
2022/08/30 01:26:20;;;;;;;2.70;2.37;;;18.00;99.90;;;;;;5109515;28;20190;-71
2022/08/30 01:28:50;;;;;;;2.87;2.63;;;18.00;99.90;;;;;;5107659;28;20213;-71
2022/08/30 01:31:17;;;;;;;2.17;2.07;;;18.00;99.90;;;;;;5108963;28;20202;-71
2022/08/30 01:33:44;;;;;;;3.30;2.53;;;18.00;99.90;;;;;;5108558;28;20233;-71
2022/08/30 01:36:14;;;;;;;2.60;2.40;;;18.00;99.90;;;;;;5098093;28;20202;-71
2022/08/30 01:38:48;;;;;;;3.60;2.87;;;17.90;99.90;;;;;;5088548;28;20665;-71
2022/08/30 01:41:20;;;;;;;2.77;2.57;;;17.80;99.90;;;;;;5088317;28;20796;-71
2022/08/30 01:43:49;;;;;;;2.70;2.50;;;17.70;99.90;;;;;;5088545;28;20202;-70
2022/08/30 01:46:20;;;;;;;2.70;2.50;;;17.70;99.90;;;;;;5087935;28;20208;-71
2022/08/30 01:48:47;;;;;;;2.60;2.40;;;17.70;99.90;;;;;;5088180;28;20657;-71
2022/08/30 01:51:15;;;;;;;2.50;2.30;;;17.70;99.90;;;;;;5087751;28;20230;-70
2022/08/30 01:53:43;;;;;;;2.90;2.70;;;17.70;99.90;;;;;;5088294;28;20769;-70
2022/08/30 01:56:13;;;;;;;3.17;2.90;;;17.80;99.90;;;;;;5102696;28;20206;-70
2022/08/30 01:58:42;;;;;;;4.77;2.67;;;17.80;99.90;;;;;;5108603;28;20252;-70
2022/08/30 02:01:12;;;;;;;3.20;3.00;;;17.80;99.90;;;;;;5099151;28;20238;-70
2022/08/30 02:03:40;;;;;;;2.90;2.70;;;17.80;99.90;;;;;;5088078;28;20728;-70
2022/08/30 02:06:12;;;;;;;3.60;3.30;;;17.80;99.90;;;;;;5087848;28;20720;-70
2022/08/30 02:08:40;;;;;;;4.20;3.17;;;17.80;99.90;;;;;;5089149;28;20716;-70
2022/08/30 02:11:14;;;;;;;3.07;2.93;;;17.80;99.90;;;;;;5108165;28;20206;-70
2022/08/30 02:13:44;;;;;;;4.10;3.23;;;17.70;99.90;;;;;;5108140;28;20230;-70
2022/08/30 02:16:16;;;;;;;3.77;3.37;;;17.80;99.90;;;;;;5107969;28;20198;-70
2022/08/30 02:18:43;;;;;;;4.37;3.13;;;17.80;99.90;;;;;;5108181;28;20758;-68
2022/08/30 02:21:13;;;;;;;3.70;3.27;;;17.70;99.90;;;;;;5108036;28;20668;-68
2022/08/30 02:23:41;;;;;;;3.77;3.47;;;17.70;99.90;;;;;;5105114;28;20217;-68
2022/08/30 02:26:15;;;;;;;3.93;3.63;;;17.70;99.90;;;;;;5105908;28;20202;-68
2022/08/30 02:28:44;;;;;;;3.93;3.63;;;17.70;99.90;;;;;;5099561;28;20211;-68
2022/08/30 02:31:11;;;;;;;3.80;3.50;;;17.70;99.90;;;;;;5085728;28;20213;-68
2022/08/30 02:33:38;;;;;;;3.90;3.60;;;17.70;99.90;;;;;;5085832;28;20222;-68
2022/08/30 02:36:14;;;;;;;3.30;3.10;;;17.70;99.90;;;;;;5102160;28;20206;-68
2022/08/30 02:38:41;;;;;;;4.23;4.03;;;17.70;99.90;;;;;;5100459;28;20225;-68
2022/08/30 02:41:11;;;;;;;4.70;3.73;;;17.60;99.90;;;;;;5089724;28;20209;-68
2022/08/30 02:43:37;;;;;;;3.50;3.30;;;17.60;99.90;;;;;;5105925;28;20206;-69
2022/08/30 02:46:12;;;;;;;3.83;3.60;;;17.60;99.90;;;;;;5105516;28;20210;-69
2022/08/30 02:48:39;;;;;;;3.90;3.70;;;17.60;99.90;;;;;;5105857;28;20205;-69
2022/08/30 02:51:13;;;;;;;4.07;3.77;;;17.60;99.90;;;;;;5101453;28;20716;-70
2022/08/30 02:53:42;;;;;;;4.20;4.00;;;17.60;99.90;;;;;;5087839;28;20222;-69
2022/08/30 02:56:14;;;;;;;4.10;3.80;;;17.60;99.90;;;;;;5087253;28;21073;-68
2022/08/30 02:58:41;;;;;;;4.10;3.90;;;17.50;99.90;;;;;;5087451;28;20695;-68
2022/08/30 03:01:17;;;;;;;4.10;3.90;;;17.50;99.90;;;;;;5086661;28;20206;-68
2022/08/30 03:03:45;;;;;;;3.90;3.60;;;17.50;99.90;;;;;;5088362;28;20230;-68
2022/08/30 03:06:21;;;;;;;3.60;3.40;;;17.50;99.90;;;;;;5097768;28;20213;-68
2022/08/30 03:08:48;;;;;;;4.17;3.87;;;17.50;99.90;;;;;;5112081;27;20256;-68
2022/08/30 03:11:24;;;;;;;4.27;3.87;;;17.50;99.90;;;;;;5111524;28;20769;-68
2022/08/30 03:13:51;;;;;;;4.17;3.87;;;17.40;99.90;;;;;;5111618;28;20230;-68
2022/08/30 03:16:25;;;;;;;5.07;4.17;;;17.40;99.90;;;;;;5111664;28;20202;-68
2022/08/30 03:18:52;;;;;;;3.80;3.60;;;17.40;99.90;;;;;;5111764;28;20206;-68
2022/08/30 03:21:18;;;;;;;4.37;4.07;;;17.40;99.90;;;;;;5097422;28;20707;-68
2022/08/30 03:23:45;;;;;;;4.77;4.10;;;17.30;99.90;;;;;;5093755;28;20203;-68
2022/08/30 03:26:21;;;;;;;3.87;3.67;;;17.30;99.90;;;;;;5111073;27;20210;-68
2022/08/30 03:28:48;;;;;;;4.43;4.03;;;17.30;99.90;;;;;;5111597;28;20204;-68
2022/08/30 03:31:20;;;;;;;4.50;4.17;;;17.30;99.90;;;;;;5110983;28;20213;-68
2022/08/30 03:33:48;;;;;;;4.43;4.13;;;17.30;99.90;;;;;;5111080;28;20836;-68
2022/08/30 03:36:18;;;;;;;4.50;4.20;;;17.30;99.90;;;;;;5111552;28;20217;-68
2022/08/30 03:38:45;;;;;;;4.73;4.37;;;17.30;99.90;;;;;;5111457;28;20213;-68
2022/08/30 03:41:28;;;;;;;3.90;3.70;;;17.30;99.90;;;;;;5111363;28;20208;-68
2022/08/30 03:43:55;;;;;;;4.40;4.20;;;17.30;99.90;;;;;;5111385;28;20232;-68
2022/08/30 03:46:24;;;;;;;4.10;3.70;;;17.30;99.90;;;;;;5111073;28;20202;-68
2022/08/30 03:48:54;;;;;;;4.40;4.10;;;17.30;99.90;;;;;;5111310;28;20198;-68
2022/08/30 03:51:25;;;;;;;4.07;3.77;;;17.30;99.90;;;;;;5110812;28;20256;-68
2022/08/30 03:53:52;;;;;;;3.80;3.60;;;17.30;99.90;;;;;;5110850;28;20214;-68
2022/08/30 03:56:23;;;;;;;4.33;4.00;;;17.30;99.90;;;;;;5110648;28;21024;-68
2022/08/30 03:58:50;;;;;;;4.00;3.70;;;17.30;99.90;;;;;;5111055;28;20206;-68
2022/08/30 04:01:26;;;;;;;4.30;4.00;;;17.30;99.90;;;;;;5110717;28;20206;-68
2022/08/30 04:03:55;;;;;;;4.10;3.80;;;17.30;99.90;;;;;;5110819;28;20206;-68
2022/08/30 04:06:28;;;;;;;4.13;3.93;;;17.30;99.90;;;;;;5111244;28;20216;-68
2022/08/30 04:08:55;;;;;;;3.90;3.57;;;17.20;99.90;;;;;;5110715;28;20208;-68
2022/08/30 04:11:22;;;;;;;4.03;3.73;;;17.20;99.90;;;;;;5110449;28;20672;-68
2022/08/30 04:13:50;;;;;;;3.57;3.37;;;17.20;99.90;;;;;;5097820;28;20238;-68
2022/08/30 04:16:20;;;;;;;4.00;3.80;;;17.20;99.90;;;;;;5090236;28;20288;-68
2022/08/30 04:18:47;;;;;;;3.93;3.60;;;17.20;99.90;;;;;;5090223;28;20600;-68
2022/08/30 04:21:21;;;;;;;3.63;3.43;;;17.20;99.90;;;;;;5103551;28;20466;-68
2022/08/30 04:23:48;;;;;;;3.73;3.50;;;17.20;99.90;;;;;;5110497;28;20274;-68
2022/08/30 04:26:24;;;;;;;3.47;3.17;;;17.20;99.90;;;;;;5110407;28;20688;-68
2022/08/30 04:28:53;;;;;;;4.17;3.77;;;17.20;99.90;;;;;;5110612;28;20202;-68
2022/08/30 04:31:23;;;;;;;5.67;3.70;;;17.10;99.90;;;;;;5110219;28;20217;-68
2022/08/30 04:33:50;;;;;;;3.80;3.50;;;17.10;99.90;;;;;;5110383;28;20225;-68
2022/08/30 04:36:27;;;;;;;3.67;3.40;;;17.10;99.90;;;;;;5110490;28;20198;-68
2022/08/30 04:38:54;;;;;;;3.80;3.60;;;17.10;99.90;;;;;;5103386;28;20205;-68
2022/08/30 04:41:23;;;;;;;4.50;4.20;;;17.10;99.90;;;;;;5089586;28;20210;-68
2022/08/30 04:43:50;;;;;;;3.63;3.43;;;17.00;99.90;;;;;;5102111;28;20210;-68
2022/08/30 04:46:23;;;;;;;4.67;4.17;;;17.10;99.90;;;;;;5109990;27;20202;-68
2022/08/30 04:48:50;;;;;;;3.60;3.30;;;17.10;99.90;;;;;;5110270;27;20202;-68
2022/08/30 04:51:22;;;;;;;4.33;3.37;;;17.10;99.90;;;;;;5107567;28;20743;-68
2022/08/30 04:53:50;;;;;;;3.43;3.23;;;17.10;99.90;;;;;;5109510;28;20660;-68
2022/08/30 04:56:26;;;;;;;3.80;3.50;;;17.10;99.90;;;;;;5109694;28;20579;-68
2022/08/30 04:58:55;;;;;;;4.03;3.63;;;17.10;99.90;;;;;;5109808;28;20290;-68
2022/08/30 05:01:25;;;;;;;3.80;3.60;;;17.10;99.90;;;;;;5109478;28;20297;-68
2022/08/30 05:03:54;;;;;;;4.10;3.70;;;17.10;99.90;;;;;;5109544;28;20682;-68
2022/08/30 05:06:30;;;;;;;3.97;3.67;;;17.10;99.90;;;;;;5109843;28;20216;-68
2022/08/30 05:09:00;;;;;;;4.13;3.20;;;17.00;99.90;;;;;;5109714;28;20216;-68
2022/08/30 05:11:27;;;;;;;3.43;3.23;;;17.10;99.90;;;;;;5109630;28;20210;-68
2022/08/30 05:13:55;;;;;;;5.00;4.00;;;17.10;99.90;;;;;;5109440;28;20210;-68
2022/08/30 05:16:21;;;;;;;3.77;3.57;;;17.00;99.90;;;;;;5109424;28;20220;-68
2022/08/30 05:18:49;;;;;;;5.53;4.00;;;17.00;99.90;;;;;;5109071;28;20549;-68
2022/08/30 05:21:27;;;;;;;4.63;4.27;;;17.00;99.90;;;;;;5109135;28;20953;-68
2022/08/30 05:23:55;;;;;;;4.57;4.17;;;17.00;99.90;;;;;;5109150;28;20216;-68
2022/08/30 05:26:37;;;;;;;4.40;4.10;;;17.00;99.90;;;;;;5108491;28;20202;-68
2022/08/30 05:29:04;;;;;;;5.10;4.60;;;17.10;99.90;;;;;;5109366;28;20191;-68
2022/08/30 05:31:33;;;;;;;4.43;4.13;;;17.10;99.90;;;;;;5109205;28;20212;-68
2022/08/30 05:34:01;;;;;;;4.60;4.30;;;17.10;99.90;;;;;;5108968;28;20578;-68
2022/08/30 05:36:33;;;;;;;5.20;4.70;;;17.10;99.90;;;;;;5109180;28;20209;-68
2022/08/30 05:39:00;;;;;;;5.10;4.80;;;17.10;99.90;;;;;;5100508;28;20203;-68
2022/08/30 05:41:27;;;;;;;6.63;4.97;;;17.10;99.90;;;;;;5088047;28;20744;-68
2022/08/30 05:43:57;;;;;;;5.77;5.00;;;17.10;99.90;;;;;;5088451;28;20233;-68
2022/08/30 05:46:31;;;;;;;5.03;4.63;;;17.10;99.90;;;;;;5088232;28;20583;-68
2022/08/30 05:49:00;;;;;;;6.07;5.20;;;17.10;99.90;;;;;;5092151;28;20301;-68
2022/08/30 05:51:28;;;;;;;6.57;5.47;;;17.20;99.90;;;;;;5108366;28;20234;-68
2022/08/30 05:53:56;;;;;;;5.37;5.00;;;17.20;99.90;;;;;;5108598;28;20206;-68
2022/08/30 05:56:31;;;;;;;6.67;6.07;;;17.30;99.90;;;;;;5108356;28;20204;-68
2022/08/30 05:59:00;;;;;;;6.20;5.77;;;17.40;99.90;;;;;;5108589;28;20318;-68
2022/08/30 06:01:31;;;;;;;7.43;6.67;;;17.40;99.90;;;;;;5107868;28;20206;-68
2022/08/30 06:04:00;;;;;;;6.20;5.80;;;17.50;99.90;;;;;;5108323;28;20198;-68
2022/08/30 06:06:28;;;;;;;5.57;5.07;;;17.50;99.90;;;;;;5108625;28;20208;-68
2022/08/30 06:08:55;;;;;;;6.73;6.13;;;17.50;99.90;;;;;;5108398;28;20669;-68
2022/08/30 06:11:31;;;;;;;6.93;6.33;;;17.40;99.90;;;;;;5108556;28;20282;-68
2022/08/30 06:13:59;;;;;;;6.77;6.17;;;17.40;99.90;;;;;;5100073;28;20725;-68
2022/08/30 06:16:27;;;;;;;7.17;6.40;;;17.40;99.90;;;;;;5088176;28;20207;-68
2022/08/30 06:18:56;;;;;;;7.00;6.40;;;17.40;99.90;;;;;;5088254;28;20214;-68
2022/08/30 06:21:34;;;;;;;7.40;6.70;;;17.30;99.90;;;;;;5102408;28;20731;-68
2022/08/30 06:24:01;;;;;;;6.60;6.10;;;17.40;99.90;;;;;;5108424;28;20297;-68
2022/08/30 06:26:29;;;;;;;7.37;6.60;;;17.40;99.90;;;;;;5108221;28;20225;-68
2022/08/30 06:28:56;;;;;;;7.73;6.07;;;17.40;99.90;;;;;;5107874;28;20816;-68
2022/08/30 06:31:28;;;;;;;6.77;6.20;;;17.50;99.90;;;;;;5108040;28;20206;-68
2022/08/30 06:33:55;;;;;;;6.03;5.43;;;17.50;99.90;;;;;;5107926;28;20206;-68
2022/08/30 06:36:47;;;;;;;7.00;6.00;;;17.60;99.90;;;;;;5108181;28;20229;-68
2022/08/30 06:39:14;;;;;;;8.00;7.03;;;17.70;99.90;;;;;;5098376;28;20203;-68
2022/08/30 06:41:41;;;;;;;7.87;7.17;;;17.70;99.90;;;;;;5087514;28;20224;-68
2022/08/30 06:44:08;;;;;;;6.83;6.23;;;17.70;99.90;;;;;;5102298;28;20719;-68
2022/08/30 06:46:38;;;;;;;7.63;6.13;;;17.70;99.90;;;;;;5092343;28;20206;-68
2022/08/30 06:49:07;;;;;;;7.00;6.40;;;17.70;99.90;;;;;;5087707;28;20475;-68
2022/08/30 06:51:36;;;;;;;7.13;6.63;;;17.80;99.90;;;;;;5087362;28;20708;-68
2022/08/30 06:54:04;;;;;;;9.57;7.90;;;17.70;99.90;;;;;;5087785;28;20206;-68
2022/08/30 06:56:31;;;;;;;8.30;7.60;;;17.80;99.90;;;;;;5087339;28;20616;-68
2022/08/30 06:58:58;;;;;;;7.10;6.40;;;17.80;99.90;;;;;;5087253;28;20229;-68
2022/08/30 07:01:27;;;;;;;7.17;6.60;;;17.80;99.90;;;;;;5087327;28;20207;-68
2022/08/30 07:03:57;;;;;;;7.37;6.77;;;17.80;99.90;;;;;;5087427;28;20202;-68
2022/08/30 07:06:32;;;;;;;6.83;6.27;;;17.90;99.90;;;;;;5087465;28;20207;-68
2022/08/30 07:09:01;;;;;;;8.43;7.03;;;17.80;99.90;;;;;;5091405;28;20576;-68
2022/08/30 07:11:31;;;;;;;6.67;6.07;;;17.80;99.90;;;;;;5107303;28;20217;-68
2022/08/30 07:13:58;;;;;;;9.20;6.60;;;17.80;99.90;;;;;;5107587;28;20205;-68
2022/08/30 07:16:40;;;;;;;7.77;7.00;;;17.80;99.90;;;;;;5107188;28;20324;-68
2022/08/30 07:19:07;;;;;;;7.83;7.23;;;17.90;99.90;;;;;;5107352;28;20216;-68
2022/08/30 07:21:36;;;;;;;8.77;7.97;;;18.00;99.90;;;;;;5107432;28;20664;-68
2022/08/30 07:24:03;;;;;;;10.00;7.77;;;18.10;99.90;;;;;;5107563;28;20208;-68
2022/08/30 07:26:34;;;;;;;10.93;8.20;;;18.20;99.90;;;;;;5107249;28;20217;-68
2022/08/30 07:29:02;;;;;;;15.57;9.83;;;18.30;99.90;;;;;;5107495;28;20191;-68
2022/08/30 07:31:29;;;;;;;12.33;11.20;;;18.30;99.90;;;;;;5107083;28;20228;-68
2022/08/30 07:33:56;;;;;;;12.27;11.23;;;18.30;99.90;;;;;;5107520;28;20198;-68
2022/08/30 07:36:30;;;;;;;11.50;10.03;;;18.40;99.90;;;;;;5107341;28;20230;-68
2022/08/30 07:38:57;;;;;;;9.93;9.07;;;18.40;99.90;;;;;;5099694;28;20284;-68
2022/08/30 07:41:28;;;;;;;11.67;10.43;;;18.50;99.90;;;;;;5087041;28;20213;-68
2022/08/30 07:43:55;;;;;;;11.00;9.90;;;18.50;99.90;;;;;;5099939;28;20206;-68
2022/08/30 07:46:31;;;;;;;10.60;9.60;;;18.60;99.90;;;;;;5107424;28;20209;-68
2022/08/30 07:49:00;;;;;;;10.80;9.70;;;18.70;99.90;;;;;;5088164;28;20583;-68
2022/08/30 07:51:27;;;;;;;10.37;9.47;;;18.70;99.90;;;;;;5090548;28;20601;-68
2022/08/30 07:53:56;;;;;;;13.30;10.30;;;18.80;99.90;;;;;;5090366;28;20657;-68
2022/08/30 07:56:26;;;;;;;10.83;9.90;;;18.80;99.90;;;;;;5090212;28;20725;-68
2022/08/30 07:58:53;;;;;;;13.87;10.43;;;18.80;99.90;;;;;;5090785;28;20206;-68
2022/08/30 08:01:26;;;;;;;10.17;9.23;;;18.90;99.90;;;;;;5090146;28;20203;-68
2022/08/30 08:03:53;;;;;;;9.80;9.10;;;18.90;99.90;;;;;;5090527;28;20209;-68
2022/08/30 08:06:29;;;;;;;11.00;9.93;;;19.00;99.90;;;;;;5103915;28;20210;-68
2022/08/30 08:09:01;;;;;;;13.93;11.80;;;19.10;99.90;;;;;;5110743;28;20202;-68
2022/08/30 08:11:28;;;;;;;10.37;9.47;;;19.10;99.90;;;;;;5110672;28;20197;-68
2022/08/30 08:13:55;;;;;;;9.30;8.63;;;19.30;99.90;;;;;;5103368;28;20686;-68
2022/08/30 08:16:24;;;;;;;8.60;7.93;;;19.30;99.90;;;;;;5110233;28;20232;-68
2022/08/30 08:18:51;;;;;;;8.73;8.03;;;19.40;99.90;;;;;;5110572;28;20211;-68
2022/08/30 08:21:31;;;;;;;8.80;8.10;;;19.40;99.90;;;;;;5095858;28;20292;-68
2022/08/30 08:23:59;;;;;;;9.60;8.70;;;19.40;99.90;;;;;;5093627;28;20209;-68
2022/08/30 08:26:29;;;;;;;12.00;10.67;;;19.40;99.90;;;;;;5099240;28;20207;-68
2022/08/30 08:28:55;;;;;;;10.30;9.50;;;19.40;99.90;;;;;;5090243;28;20209;-68
2022/08/30 08:31:32;;;;;;;10.27;9.17;;;19.30;99.90;;;;;;5089893;28;20207;-68
2022/08/30 08:33:59;;;;;;;7.97;7.43;;;19.30;99.90;;;;;;5089776;28;20209;-68
2022/08/30 08:36:29;;;;;;;8.20;7.47;;;19.30;99.90;;;;;;5089739;28;20502;-68
2022/08/30 08:38:55;;;;;;;7.30;6.70;;;19.30;99.90;;;;;;5096225;28;20559;-68
2022/08/30 08:41:41;;;;;;;6.90;6.23;;;19.40;99.90;;;;;;5089903;28;20198;-68
2022/08/30 08:44:15;;;;;;;6.23;5.80;;;19.50;99.90;;;;;;5099433;28;20198;-68
2022/08/30 08:46:50;;;;;;;6.27;5.87;;;19.60;99.90;;;;;;5110330;28;20190;-68
2022/08/30 08:49:17;;;;;;;5.77;5.37;;;19.70;99.90;;;;;;5110342;28;20213;-68
2022/08/30 08:54:34;;;;;;;5.57;5.13;;;19.80;99.90;;;;;;5110087;28;20344;-68
2022/08/30 08:57:02;;;;;;;5.80;5.50;;;19.90;99.90;;;;;;5109946;28;20303;-68
2022/08/30 08:59:29;;;;;;;5.07;4.87;;;19.90;99.90;;;;;;5110187;28;20217;-68
2022/08/30 09:02:00;;;;;;;4.20;4.00;;;19.80;99.90;;;;;;5101196;28;20206;-68
2022/08/30 09:04:33;;;;;;;4.60;3.50;;;19.80;99.90;;;;;;5089571;28;20291;-68
2022/08/30 09:07:05;;;;;;;3.17;2.90;;;19.70;99.90;;;;;;5089139;28;20190;-69
2022/08/30 09:09:35;;;;;;;2.97;2.77;;;19.70;99.90;;;;;;5089232;28;20197;-68
2022/08/30 09:12:04;;;;;;;7.03;2.97;;;19.60;99.90;;;;;;5088639;28;20227;-68
2022/08/30 09:14:35;;;;;;;2.60;2.40;;;19.60;99.90;;;;;;5089341;28;20222;-68
2022/08/30 09:17:03;;;;;;;2.90;2.70;;;19.60;99.90;;;;;;5088402;28;20231;-68
2022/08/30 09:19:42;;;;;;;3.17;2.70;;;19.60;99.90;;;;;;5089094;28;20203;-68
2022/08/30 09:22:20;;;;;;;2.83;2.57;;;19.60;99.90;;;;;;5088871;28;20194;-68
2022/08/30 09:24:49;;;;;;;2.43;2.20;;;19.60;99.90;;;;;;5100485;28;20203;-68
2022/08/30 09:27:21;;;;;;;7.23;2.90;;;19.70;99.90;;;;;;5088688;28;20217;-68
2022/08/30 09:29:53;;;;;;;1.93;1.80;;;19.80;99.90;;;;;;5088948;28;20278;-68
2022/08/30 09:32:34;;;;;;;2.13;2.03;;;19.90;99.90;;;;;;5088178;28;20657;-68
2022/08/30 09:35:01;;;;;;;12.00;2.77;;;20.00;99.90;;;;;;5101577;28;20187;-68
2022/08/30 09:37:38;;;;;;;3.63;2.40;;;20.10;99.90;;;;;;5109174;27;20313;-68
2022/08/30 09:40:13;;;;;;;1.93;1.83;;;20.20;99.90;;;;;;5091699;28;20195;-68
2022/08/30 09:42:41;;;;;;;2.47;1.70;;;20.40;99.90;;;;;;5102551;28;20198;-68
2022/08/30 09:45:19;;;;;;;3.23;1.53;;;20.50;99.90;;;;;;5108459;28;20309;-69
2022/08/30 09:47:46;;;;;;;2.70;2.07;;;20.60;99.90;;;;;;5092114;28;20238;-68
2022/08/30 09:50:14;;;;;;;1.80;1.70;;;20.70;99.90;;;;;;5099357;27;20293;-68
2022/08/30 09:52:56;;;;;;;1.40;1.40;;;20.70;99.90;;;;;;5088668;28;20226;-68
2022/08/30 09:55:52;;;;;;;5.77;1.63;;;20.70;99.90;;;;;;5087894;28;20211;-68
2022/08/30 09:58:32;;;;;;;1.60;1.40;;;20.80;99.90;;;;;;5103291;28;20210;-68
2022/08/30 10:01:10;;;;;;;1.40;1.27;;;20.90;99.90;;;;;;5100830;27;20190;-68
2022/08/30 10:03:43;;;;;;;1.30;1.20;;;20.90;99.90;;;;;;5100160;28;20201;-68
2022/08/30 10:06:32;;;;;;;2.17;1.08;;;21.10;99.90;;;;;;5103526;27;20198;-68
2022/08/30 10:09:11;;;;;;;20.42;2.95;;;21.20;99.90;;;;;;5094523;28;20194;-68
2022/08/30 10:11:49;;;;;;;11.02;1.50;;;21.40;99.90;;;;;;5107268;28;20226;-68
2022/08/30 10:14:38;;;;;;;3.92;0.80;;;21.50;99.90;;;;;;5107899;28;20189;-68
2022/08/30 10:17:11;;;;;;;0.60;0.60;;;21.50;99.90;;;;;;5087742;28;20219;-68
2022/08/30 10:19:50;;;;;;;0.80;0.80;;;21.50;99.90;;;;;;5101516;28;20206;-68
2022/08/30 10:22:24;;;;;;;1.20;1.10;;;21.40;99.90;;;;;;5107682;28;20292;-68
2022/08/30 10:24:55;;;;;;;1.00;1.00;;;21.50;99.90;;;;;;5102556;28;20198;-68
2022/08/30 10:27:28;;;;;;;1.00;1.00;;;21.60;99.90;;;;;;5087684;28;20207;-68
2022/08/30 10:30:02;;;;;;;1.30;1.30;;;21.70;99.90;;;;;;5089939;28;20549;-68
2022/08/30 10:32:36;;;;;;;1.10;1.10;;;21.80;99.90;;;;;;5092035;28;20227;-68
2022/08/30 10:35:07;;;;;;;1.50;1.40;;;21.90;99.90;;;;;;5103907;28;20281;-68
2022/08/30 10:37:40;;;;;;;1.70;1.42;;;22.00;99.90;;;;;;5107866;28;20233;-68
2022/08/30 10:43:02;;;;;;;1.08;1.08;;;22.10;99.90;;;;;;5095246;28;20209;-68
2022/08/30 10:45:35;;;;;;;1.10;1.00;;;22.30;99.90;;;;;;5099237;28;20559;-68
2022/08/30 10:48:11;;;;;;;2.25;1.20;;;22.30;99.90;;;;;;5087063;28;20553;-68
2022/08/30 10:50:42;;;;;;;0.93;0.93;;;22.40;99.90;;;;;;5095292;28;20198;-68
2022/08/30 10:53:14;;;;;;;1.20;1.20;;;22.50;99.90;;;;;;5094729;28;20237;-68
2022/08/30 10:55:46;;;;;;;1.50;1.40;;;22.50;99.90;;;;;;5088915;28;20214;-68
2022/08/30 10:58:15;;;;;;;1.30;1.20;;;22.70;99.90;;;;;;5104053;28;20210;-68
2022/08/30 11:00:57;;;;;;;1.27;1.27;;;22.80;99.90;;;;;;5107191;28;20921;-68
2022/08/30 11:03:48;;;;;;;1.80;1.70;;;22.80;99.90;;;;;;5097632;28;20301;-68
2022/08/30 11:06:34;;;;;;;1.40;1.30;;;22.90;99.90;;;;;;5087404;28;20213;-68
2022/08/30 11:09:17;;;;;;;2.17;1.27;;;23.00;99.90;;;;;;5086973;28;20203;-68
2022/08/30 11:12:16;;;;;;;2.50;1.63;;;23.20;99.90;;;;;;5087120;28;20692;-68
2022/08/30 11:14:45;;;;;;;1.33;1.23;;;23.30;99.90;;;;;;5091525;28;20194;-68
2022/08/30 11:17:25;;;;;;;2.03;1.33;;;23.40;99.90;;;;;;5106967;28;20238;-68
2022/08/30 11:19:54;;;;;;;1.60;1.50;;;23.60;99.90;;;;;;5105377;28;20204;-68
2022/08/30 11:22:24;;;;;;;1.63;1.52;;;23.70;99.90;;;;;;5104889;28;20210;-68
2022/08/30 11:25:08;;;;;;;1.70;1.60;;;23.80;99.90;;;;;;5099100;28;20212;-68
2022/08/30 11:27:57;;;;;;;3.60;2.00;;;23.90;99.90;;;;;;5105448;28;20206;-68
2022/08/30 11:31:03;;;;;;;2.92;2.00;;;24.00;99.90;;;;;;5107277;28;20213;-68
2022/08/30 11:33:44;;;;;;;2.33;1.90;;;23.90;99.90;;;;;;5042905;28;20213;-68
2022/08/30 11:36:45;;;;;;;2.30;2.10;;;24.10;99.90;;;;;;5101984;28;20264;-68
2022/08/30 11:39:33;;;;;;;2.58;2.42;;;24.00;99.90;;;;;;5109513;28;20222;-68
2022/08/30 11:42:12;;;;;;;2.42;2.33;;;24.00;99.90;;;;;;5110126;28;20217;-68
2022/08/30 11:44:39;;;;;;;2.58;2.47;;;24.00;99.90;;;;;;5094212;28;20205;-68
2022/08/30 11:47:39;;;;;;;2.30;2.20;;;24.00;99.90;;;;;;5109289;28;20205;-68
2022/08/30 11:50:12;;;;;;;2.05;1.95;;;24.00;99.90;;;;;;5110698;28;20198;-68
2022/08/30 11:52:50;;;;;;;2.60;2.50;;;24.00;99.90;;;;;;5104024;27;20354;-68
2022/08/30 11:55:40;;;;;;;2.20;2.10;;;23.90;99.90;;;;;;5107406;27;20202;-68
2022/08/30 11:58:25;;;;;;;1.98;1.50;;;23.80;99.90;;;;;;5106463;28;20248;-68
2022/08/30 12:01:25;;;;;;;1.75;1.20;;;23.80;99.90;;;;;;5105487;28;20199;-68
2022/08/30 12:03:57;;;;;;;1.83;1.10;;;23.70;99.90;;;;;;5089958;28;20579;-68
2022/08/30 12:06:47;;;;;;;1.40;1.30;;;23.70;99.90;;;;;;5090436;28;20206;-68
2022/08/30 12:10:00;;;;;;;1.38;0.90;;;23.70;99.90;;;;;;5098645;28;20560;-68
2022/08/30 12:12:52;;;;;;;1.23;1.10;;;23.70;99.90;;;;;;5110470;28;20218;-68
2022/08/30 12:15:47;;;;;;;0.73;0.73;;;23.90;99.90;;;;;;5101207;28;20806;-68
2022/08/30 12:18:28;;;;;;;1.05;1.05;;;24.20;99.90;;;;;;5110306;28;20229;-68
2022/08/30 12:20:57;;;;;;;2.17;1.17;;;24.50;99.90;;;;;;5104800;27;20202;-68
2022/08/30 12:23:35;;;;;;;3.10;1.30;;;24.80;99.90;;;;;;5103669;28;20255;-68
2022/08/30 12:26:32;;;;;;;3.15;1.27;;;25.10;99.90;;;;;;5110327;28;20205;-68
2022/08/30 12:29:18;;;;;;;2.05;1.15;;;25.40;99.90;;;;;;5097102;28;20205;-68
2022/08/30 12:31:47;;;;;;;1.00;1.00;;;25.60;99.90;;;;;;5102823;28;20202;-68
2022/08/30 12:34:21;;;;;;;1.58;1.45;;;25.80;99.90;;;;;;5109356;28;20206;-68
2022/08/30 12:36:57;;;;;;;1.55;1.20;;;26.00;99.90;;;;;;5109605;28;20214;-68
2022/08/30 12:39:27;;;;;;;1.67;1.58;;;26.20;99.90;;;;;;5108438;28;20488;-68
2022/08/30 12:41:54;;;;;;;1.73;1.50;;;26.10;99.90;;;;;;5095762;28;20210;-68
2022/08/30 12:44:25;;;;;;;1.48;1.40;;;25.90;99.90;;;;;;5112138;27;21032;-68
2022/08/30 12:46:55;;;;;;;2.55;2.00;;;25.80;99.90;;;;;;5104504;28;20209;-68
2022/08/30 12:49:25;;;;;;;1.75;1.63;;;25.70;99.90;;;;;;5088842;28;20209;-68
2022/08/30 12:51:53;;;;;;;1.38;1.27;;;25.50;99.90;;;;;;5096994;28;20230;-67
2022/08/30 12:54:23;;;;;;;2.17;1.60;;;25.50;99.90;;;;;;5104447;28;20217;-68
2022/08/30 12:56:56;;;;;;;4.22;1.80;;;25.50;99.90;;;;;;5104818;28;20221;-69
2022/08/30 12:59:56;;;;;;;1.92;1.83;;;25.50;99.90;;;;;;5099416;28;20209;-69
2022/08/30 13:02:26;;;;;;;2.50;1.85;;;25.30;99.90;;;;;;5043986;28;20204;-68
2022/08/30 13:04:55;;;;;;;2.15;2.05;;;25.30;99.90;;;;;;5087086;28;20232;-68
2022/08/30 13:07:27;;;;;;;3.17;2.97;;;25.40;99.90;;;;;;5100773;28;20305;-68
2022/08/30 13:10:02;;;;;;;3.22;3.03;;;25.30;99.90;;;;;;5108722;28;20199;-68
2022/08/30 13:12:29;;;;;;;3.25;3.05;;;25.20;99.90;;;;;;5108753;27;20743;-68
2022/08/30 13:15:12;;;;;;;5.40;3.17;;;25.20;99.90;;;;;;5093450;28;20206;-68
2022/08/30 13:17:39;;;;;;;2.50;2.25;;;25.10;99.90;;;;;;5106705;28;20221;-68